Time;durP1;ratioP1;P1;durP2;ratioP2;P2;SDS_P1;SDS_P2;PMS_P1;PMS_P2;Temp;Humidity;BMP_temperature;BMP_pressure;BME280_temperature;BME280_humidity;BME280_pressure;Samples;Min_cycle;Max_cycle;Signal;HPM_P1;HPM_P2
2023/08/11 00:01:17;;;;;;;6.85;6.25;;;15.70;97.70;;;;;;5018135;28;20569;-77
2023/08/11 00:03:43;;;;;;;5.03;4.55;;;15.70;97.50;;;;;;5005287;28;20045;-77
2023/08/11 00:06:09;;;;;;;7.65;6.45;;;15.80;97.60;;;;;;5004207;28;20022;-77
2023/08/11 00:08:38;;;;;;;10.07;6.78;;;15.70;97.60;;;;;;5006995;28;20060;-78
2023/08/11 00:11:03;;;;;;;8.85;7.20;;;15.70;97.90;;;;;;5002250;28;20041;-78
2023/08/11 00:13:30;;;;;;;11.25;6.90;;;15.60;98.00;;;;;;5013982;28;20079;-78
2023/08/11 00:15:55;;;;;;;8.85;7.60;;;15.60;98.20;;;;;;5018331;28;20041;-78
2023/08/11 00:18:21;;;;;;;7.88;7.10;;;15.70;98.20;;;;;;4998749;28;20038;-78
2023/08/11 00:20:46;;;;;;;10.75;7.82;;;15.50;98.40;;;;;;5002050;28;20163;-77
2023/08/11 00:23:12;;;;;;;11.32;7.63;;;15.40;98.70;;;;;;5004552;28;20121;-78
2023/08/11 00:25:37;;;;;;;8.88;7.97;;;15.30;99.10;;;;;;4989623;28;20124;-78
2023/08/11 00:28:03;;;;;;;9.55;7.80;;;15.40;98.90;;;;;;4983392;28;20489;-78
2023/08/11 00:30:29;;;;;;;13.68;8.30;;;15.30;99.10;;;;;;5002458;28;20033;-77
2023/08/11 00:32:54;;;;;;;12.90;8.10;;;15.10;99.90;;;;;;4997797;28;20125;-77
2023/08/11 00:35:21;;;;;;;8.52;7.72;;;15.20;99.90;;;;;;5017848;28;20520;-77
2023/08/11 00:37:47;;;;;;;11.07;7.22;;;15.20;99.90;;;;;;5005846;28;20036;-78
2023/08/11 00:40:13;;;;;;;11.55;7.68;;;15.20;99.90;;;;;;5001532;28;20038;-78
2023/08/11 00:42:39;;;;;;;8.45;7.32;;;15.20;99.90;;;;;;4990478;28;20045;-77
2023/08/11 00:45:06;;;;;;;9.20;7.32;;;15.10;99.90;;;;;;4998935;28;20868;-77
2023/08/11 00:47:32;;;;;;;8.63;7.20;;;15.10;99.90;;;;;;5018987;28;20065;-77
2023/08/11 00:49:58;;;;;;;9.70;7.57;;;15.10;99.90;;;;;;5016357;28;20041;-77
2023/08/11 00:52:23;;;;;;;13.30;7.35;;;15.10;99.90;;;;;;5016773;28;20030;-78
2023/08/11 00:54:49;;;;;;;9.73;6.72;;;15.10;99.90;;;;;;5014652;28;20036;-78
2023/08/11 00:57:14;;;;;;;11.65;7.32;;;14.90;99.90;;;;;;4989808;28;20116;-77
2023/08/11 00:59:40;;;;;;;12.45;7.65;;;14.90;99.90;;;;;;5003071;28;20117;-78
2023/08/11 01:02:06;;;;;;;7.78;6.97;;;14.90;99.90;;;;;;4981708;28;20113;-77
2023/08/11 01:04:33;;;;;;;11.00;7.63;;;14.90;99.90;;;;;;5000360;28;20469;-77
2023/08/11 01:07:10;;;;;;;7.75;6.95;;;14.90;99.90;;;;;;5015072;28;20371;-77
2023/08/11 01:09:43;;;;;;;8.93;7.13;;;14.90;99.90;;;;;;5014282;28;20449;-77
2023/08/11 01:12:30;;;;;;;10.00;7.38;;;14.80;99.90;;;;;;4998632;28;20038;-77
2023/08/11 01:15:19;;;;;;;11.15;7.45;;;14.80;99.90;;;;;;5004525;28;20104;-77
2023/08/11 01:17:45;;;;;;;13.30;7.70;;;14.80;99.90;;;;;;5013115;28;20037;-77
2023/08/11 01:20:11;;;;;;;11.27;7.20;;;14.70;99.90;;;;;;5011947;28;20033;-77
2023/08/11 01:22:41;;;;;;;12.00;7.80;;;14.70;99.90;;;;;;5002926;28;20037;-77
2023/08/11 01:25:07;;;;;;;10.82;6.97;;;14.60;99.90;;;;;;4984228;28;20417;-77
2023/08/11 01:27:36;;;;;;;13.98;7.18;;;14.60;99.90;;;;;;5015844;28;20489;-78
2023/08/11 01:30:03;;;;;;;11.88;6.60;;;14.60;99.90;;;;;;5013339;28;20099;-77
2023/08/11 01:32:28;;;;;;;9.13;6.85;;;14.70;99.90;;;;;;5003871;28;20030;-77
2023/08/11 01:34:54;;;;;;;7.38;6.68;;;14.70;99.90;;;;;;5001035;28;20034;-77
2023/08/11 01:37:20;;;;;;;9.57;7.35;;;14.70;99.90;;;;;;5015865;28;20087;-78
2023/08/11 01:39:45;;;;;;;8.48;7.15;;;14.70;99.90;;;;;;5001744;28;20035;-78
2023/08/11 01:42:11;;;;;;;7.60;6.90;;;14.60;99.90;;;;;;5013897;28;20040;-77
2023/08/11 01:44:37;;;;;;;9.63;7.43;;;14.60;99.90;;;;;;5017929;28;20042;-77
2023/08/11 01:47:03;;;;;;;11.00;7.10;;;14.50;99.90;;;;;;4983550;28;20033;-77
2023/08/11 01:49:28;;;;;;;9.75;7.38;;;14.40;99.90;;;;;;5016990;28;20029;-76
2023/08/11 01:51:54;;;;;;;10.27;7.13;;;14.40;99.90;;;;;;4989228;28;20037;-77
2023/08/11 01:54:20;;;;;;;10.05;7.13;;;14.60;99.90;;;;;;4999214;28;20034;-79
2023/08/11 01:56:45;;;;;;;9.35;6.53;;;14.40;99.90;;;;;;5014353;28;20042;-77
2023/08/11 01:59:14;;;;;;;13.77;7.07;;;14.20;99.90;;;;;;4999839;28;20125;-77
2023/08/11 02:01:40;;;;;;;7.75;6.55;;;14.30;99.90;;;;;;5003438;28;20045;-76
2023/08/11 02:04:08;;;;;;;8.25;6.10;;;14.30;99.90;;;;;;5015345;28;20422;-78
2023/08/11 02:06:35;;;;;;;15.48;7.00;;;14.30;99.90;;;;;;5018191;28;20034;-77
2023/08/11 02:09:01;;;;;;;10.43;6.55;;;14.40;99.90;;;;;;5014330;28;20046;-77
2023/08/11 02:11:27;;;;;;;10.85;6.63;;;14.30;99.90;;;;;;4993900;28;20045;-77
2023/08/11 02:13:52;;;;;;;10.52;6.72;;;14.30;99.90;;;;;;5003678;28;20480;-77
2023/08/11 02:16:18;;;;;;;10.77;7.18;;;14.20;99.90;;;;;;5016969;28;20034;-78
2023/08/11 02:18:44;;;;;;;9.45;6.50;;;14.00;99.90;;;;;;4988553;28;20097;-77
2023/08/11 02:21:10;;;;;;;7.50;6.80;;;14.00;99.90;;;;;;4990713;28;20700;-77
2023/08/11 02:23:35;;;;;;;8.05;6.85;;;14.10;99.90;;;;;;5013715;28;20034;-77
2023/08/11 02:26:01;;;;;;;11.18;7.10;;;14.20;99.90;;;;;;5015425;28;20073;-77
2023/08/11 02:28:26;;;;;;;8.57;7.07;;;14.10;99.90;;;;;;5016567;28;20516;-77
2023/08/11 02:30:52;;;;;;;11.88;7.50;;;14.20;99.90;;;;;;4977682;28;20451;-77
2023/08/11 02:33:18;;;;;;;9.05;7.15;;;14.00;99.90;;;;;;4999807;28;20112;-79
2023/08/11 02:35:45;;;;;;;9.88;7.13;;;14.00;99.90;;;;;;5017071;28;20149;-80
2023/08/11 02:38:11;;;;;;;10.40;7.30;;;14.00;99.90;;;;;;4993978;28;20183;-77
2023/08/11 02:40:37;;;;;;;9.48;7.28;;;14.00;99.90;;;;;;4989057;28;20511;-79
2023/08/11 02:43:02;;;;;;;11.80;7.25;;;14.00;99.90;;;;;;5002652;28;20025;-80
2023/08/11 02:45:28;;;;;;;12.13;6.38;;;14.00;99.90;;;;;;5015859;28;20043;-79
2023/08/11 02:47:54;;;;;;;12.85;7.68;;;14.00;99.90;;;;;;4981540;28;20529;-80
2023/08/11 02:50:19;;;;;;;11.20;7.40;;;13.90;99.90;;;;;;4998918;28;20501;-80
2023/08/11 02:52:45;;;;;;;11.90;7.43;;;13.90;99.90;;;;;;5015451;28;20041;-80
2023/08/11 02:55:13;;;;;;;11.95;6.90;;;13.90;99.90;;;;;;5012595;28;20041;-80
2023/08/11 02:57:39;;;;;;;9.88;7.50;;;13.90;99.90;;;;;;5017014;28;20037;-79
2023/08/11 03:00:12;;;;;;;11.05;7.43;;;13.80;99.90;;;;;;5017425;28;20043;-80
2023/08/11 03:02:38;;;;;;;10.20;7.57;;;13.90;99.90;;;;;;5005582;28;20042;-79
2023/08/11 03:05:06;;;;;;;8.77;7.25;;;14.00;99.90;;;;;;4999861;28;20028;-79
2023/08/11 03:07:33;;;;;;;10.15;8.50;;;13.90;99.90;;;;;;5015036;28;20029;-79
2023/08/11 03:09:59;;;;;;;9.90;7.60;;;13.90;99.90;;;;;;5015180;28;20517;-80
2023/08/11 03:12:25;;;;;;;12.13;6.82;;;13.90;99.90;;;;;;5015174;28;20041;-79
2023/08/11 03:14:50;;;;;;;11.80;7.43;;;13.80;99.90;;;;;;5016638;28;20033;-80
2023/08/11 03:17:16;;;;;;;9.63;6.70;;;13.80;99.90;;;;;;5019037;28;20037;-80
2023/08/11 03:19:42;;;;;;;14.05;7.32;;;13.80;99.90;;;;;;5017656;28;20440;-80
2023/08/11 03:22:08;;;;;;;11.27;7.07;;;13.70;99.90;;;;;;5022131;28;20121;-79
2023/08/11 03:24:34;;;;;;;9.40;7.00;;;13.60;99.90;;;;;;4987846;28;20113;-79
2023/08/11 03:26:59;;;;;;;11.02;6.90;;;13.60;99.90;;;;;;5016988;28;21224;-79
2023/08/11 03:29:25;;;;;;;8.63;6.45;;;13.60;99.90;;;;;;5020704;28;20149;-80
2023/08/11 03:31:50;;;;;;;11.65;6.78;;;13.60;99.90;;;;;;5015559;28;20038;-80
2023/08/11 03:34:16;;;;;;;8.02;6.82;;;13.60;99.90;;;;;;5019210;28;20034;-77
2023/08/11 03:36:43;;;;;;;11.43;7.00;;;13.60;99.90;;;;;;5018282;28;20401;-77
2023/08/11 03:39:08;;;;;;;6.63;5.88;;;13.60;99.90;;;;;;5020639;28;20045;-78
2023/08/11 03:41:34;;;;;;;8.75;7.22;;;13.60;99.90;;;;;;5020947;28;20539;-77
2023/08/11 03:43:59;;;;;;;8.07;6.32;;;13.60;99.90;;;;;;5025063;28;20429;-78
2023/08/11 03:46:25;;;;;;;13.77;6.18;;;13.60;99.90;;;;;;5024946;28;20638;-78
2023/08/11 03:48:50;;;;;;;11.60;6.40;;;13.50;99.90;;;;;;5008562;28;20185;-78
2023/08/11 03:51:16;;;;;;;7.78;5.97;;;13.50;99.90;;;;;;5016784;28;20450;-78
2023/08/11 03:53:42;;;;;;;8.02;6.57;;;13.50;99.90;;;;;;5004756;28;20116;-79
2023/08/11 03:56:07;;;;;;;8.73;6.70;;;13.50;99.90;;;;;;5006129;28;20069;-78
2023/08/11 03:58:38;;;;;;;7.55;6.32;;;13.50;99.90;;;;;;4998061;28;20037;-78
2023/08/11 04:01:04;;;;;;;12.48;6.55;;;13.50;99.90;;;;;;4993501;28;20038;-77
2023/08/11 04:03:31;;;;;;;8.80;6.53;;;13.50;99.90;;;;;;5022555;28;20379;-77
2023/08/11 04:05:59;;;;;;;11.52;6.43;;;13.60;99.90;;;;;;5018144;28;20121;-77
2023/08/11 04:08:27;;;;;;;7.70;6.47;;;13.50;99.90;;;;;;5017707;28;20116;-78
2023/08/11 04:10:54;;;;;;;9.80;7.05;;;13.50;99.90;;;;;;5023039;28;20037;-78
2023/08/11 04:13:19;;;;;;;9.05;5.65;;;13.50;99.90;;;;;;5020521;28;20033;-77
2023/08/11 04:15:49;;;;;;;9.10;6.30;;;13.40;99.90;;;;;;4993400;28;20505;-78
2023/08/11 04:18:14;;;;;;;9.85;6.00;;;13.40;99.90;;;;;;4990359;28;20029;-78
2023/08/11 04:20:40;;;;;;;10.65;6.00;;;13.50;99.90;;;;;;5020058;28;20141;-78
2023/08/11 04:23:05;;;;;;;10.80;6.45;;;13.60;99.90;;;;;;5017855;28;20551;-78
2023/08/11 04:25:31;;;;;;;12.93;6.20;;;13.50;99.90;;;;;;5005453;28;20104;-78
2023/08/11 04:27:57;;;;;;;8.50;6.00;;;13.50;99.90;;;;;;5019295;28;20034;-78
2023/08/11 04:30:24;;;;;;;10.98;5.40;;;13.50;99.90;;;;;;4998477;28;20034;-78
2023/08/11 04:32:50;;;;;;;9.75;6.15;;;13.50;99.90;;;;;;5017247;28;20038;-78
2023/08/11 04:35:17;;;;;;;9.68;6.10;;;13.50;99.90;;;;;;5023253;28;20041;-78
2023/08/11 04:37:43;;;;;;;8.35;6.07;;;13.50;99.90;;;;;;4992242;28;20129;-77
2023/08/11 04:40:10;;;;;;;12.68;6.30;;;13.60;99.90;;;;;;4997123;28;20409;-77
2023/08/11 04:42:36;;;;;;;7.88;6.60;;;13.70;99.90;;;;;;5001691;28;20113;-78
2023/08/11 04:45:02;;;;;;;6.40;5.72;;;13.70;99.90;;;;;;5017949;28;20080;-78
2023/08/11 04:47:28;;;;;;;12.68;6.40;;;13.70;99.90;;;;;;5015421;28;20365;-78
2023/08/11 04:49:54;;;;;;;7.88;6.38;;;13.80;99.90;;;;;;5015997;28;20029;-79
2023/08/11 04:52:19;;;;;;;8.73;6.65;;;13.90;99.90;;;;;;5018054;28;20041;-78
2023/08/11 04:54:45;;;;;;;10.23;6.40;;;14.00;99.90;;;;;;5019163;28;20038;-77
2023/08/11 04:57:10;;;;;;;7.80;6.03;;;14.10;99.90;;;;;;5019255;28;20045;-78
2023/08/11 04:59:36;;;;;;;9.38;6.28;;;14.20;99.90;;;;;;5020438;28;20022;-78
2023/08/11 05:02:02;;;;;;;12.10;6.95;;;14.30;99.90;;;;;;4986996;28;20040;-78
2023/08/11 05:04:27;;;;;;;8.63;5.97;;;14.30;99.90;;;;;;5016607;28;20029;-78
2023/08/11 05:06:53;;;;;;;9.35;6.10;;;14.40;99.90;;;;;;5017460;28;20417;-77
2023/08/11 05:09:18;;;;;;;8.32;6.38;;;14.50;99.90;;;;;;5006227;28;20492;-78
2023/08/11 05:11:44;;;;;;;11.02;5.90;;;14.60;99.90;;;;;;5000677;28;20533;-77
2023/08/11 05:14:09;;;;;;;9.57;5.43;;;14.70;99.90;;;;;;4990173;28;20039;-77
2023/08/11 05:16:35;;;;;;;6.97;5.53;;;14.80;99.90;;;;;;4989591;28;20469;-78
2023/08/11 05:19:03;;;;;;;7.53;5.88;;;14.90;99.90;;;;;;5021598;28;20056;-77
2023/08/11 05:21:29;;;;;;;8.52;5.15;;;15.00;99.90;;;;;;5009184;28;20048;-77
2023/08/11 05:23:54;;;;;;;12.57;5.05;;;15.10;99.90;;;;;;5020489;28;20034;-77
2023/08/11 05:26:20;;;;;;;8.95;4.57;;;15.30;99.90;;;;;;5024196;28;20083;-77
2023/08/11 05:28:46;;;;;;;6.07;5.43;;;15.30;99.90;;;;;;5005096;28;20079;-78
2023/08/11 05:31:11;;;;;;;13.30;5.78;;;15.50;99.90;;;;;;5010176;28;20029;-78
2023/08/11 05:33:37;;;;;;;10.68;4.95;;;15.60;99.90;;;;;;5023133;28;20112;-78
2023/08/11 05:36:03;;;;;;;7.60;4.88;;;15.80;99.90;;;;;;5021838;28;20037;-78
2023/08/11 05:38:28;;;;;;;8.90;5.10;;;15.90;99.90;;;;;;5006397;28;20026;-77
2023/08/11 05:40:54;;;;;;;8.13;4.47;;;16.10;99.90;;;;;;4993169;28;20049;-76
2023/08/11 05:43:20;;;;;;;7.03;4.32;;;16.20;99.90;;;;;;5020868;28;20553;-77
2023/08/11 05:45:45;;;;;;;6.65;4.35;;;16.30;99.90;;;;;;5019098;28;20068;-77
2023/08/11 05:48:11;;;;;;;7.30;4.03;;;16.50;99.90;;;;;;5016863;28;20445;-77
2023/08/11 05:50:38;;;;;;;5.22;3.92;;;16.60;99.90;;;;;;5014850;28;20030;-78
2023/08/11 05:53:03;;;;;;;7.53;4.57;;;16.70;99.90;;;;;;5024857;28;20104;-77
2023/08/11 05:55:29;;;;;;;5.50;4.22;;;16.90;99.90;;;;;;4991288;28;20037;-78
2023/08/11 05:57:54;;;;;;;7.65;4.10;;;17.10;99.90;;;;;;5018186;28;20045;-77
2023/08/11 06:00:20;;;;;;;8.30;4.00;;;17.30;99.90;;;;;;5021971;28;20457;-77
2023/08/11 06:02:45;;;;;;;6.45;4.18;;;17.40;99.90;;;;;;5021352;28;20041;-77
2023/08/11 06:05:15;;;;;;;6.03;3.88;;;17.60;99.90;;;;;;5021790;28;20033;-77
2023/08/11 06:07:40;;;;;;;6.35;4.47;;;17.70;99.90;;;;;;5018328;28;25268;-76
2023/08/11 06:10:06;;;;;;;7.25;3.88;;;17.80;99.90;;;;;;5008607;28;20084;-77
2023/08/11 06:12:39;;;;;;;4.70;3.38;;;18.00;99.90;;;;;;5018403;28;20056;-78
2023/08/11 06:15:05;;;;;;;12.02;4.65;;;18.20;99.90;;;;;;5025039;28;20700;-78
2023/08/11 06:17:38;;;;;;;11.23;4.70;;;18.40;99.90;;;;;;5017321;28;20079;-77
2023/08/11 06:20:05;;;;;;;9.35;3.72;;;18.50;99.90;;;;;;5017649;28;20029;-76
2023/08/11 06:22:32;;;;;;;12.02;4.68;;;18.60;99.90;;;;;;5007060;28;20026;-77
2023/08/11 06:24:58;;;;;;;11.07;5.22;;;18.80;99.90;;;;;;5000543;28;20029;-78
2023/08/11 06:27:24;;;;;;;5.95;3.78;;;18.90;99.90;;;;;;5005542;28;20025;-78
2023/08/11 06:29:50;;;;;;;4.68;3.42;;;19.00;99.90;;;;;;5025761;28;20046;-78
2023/08/11 06:32:16;;;;;;;7.28;3.53;;;19.00;99.90;;;;;;5021164;28;20041;-76
2023/08/11 06:34:41;;;;;;;4.25;2.58;;;19.10;99.90;;;;;;5004446;28;20061;-76
2023/08/11 06:37:07;;;;;;;4.00;2.40;;;19.20;99.90;;;;;;5004679;28;20092;-76
2023/08/11 06:39:33;;;;;;;4.13;2.40;;;19.20;99.90;;;;;;5020938;28;20032;-77
2023/08/11 06:41:58;;;;;;;3.85;2.97;;;19.40;99.90;;;;;;5018014;28;20695;-77
2023/08/11 06:44:24;;;;;;;5.47;2.58;;;19.60;99.90;;;;;;5000334;28;20116;-77
2023/08/11 06:46:50;;;;;;;3.20;2.45;;;19.70;99.90;;;;;;4996648;28;20029;-77
2023/08/11 06:49:15;;;;;;;3.88;2.30;;;20.00;99.90;;;;;;5015303;28;20414;-77
2023/08/11 06:51:41;;;;;;;5.15;2.40;;;20.30;99.90;;;;;;5019667;28;20624;-77
2023/08/11 06:54:06;;;;;;;5.38;2.60;;;20.40;99.90;;;;;;5026012;28;20026;-77
2023/08/11 06:56:35;;;;;;;4.43;2.88;;;20.50;99.90;;;;;;5016218;28;20049;-77
2023/08/11 06:59:00;;;;;;;4.35;2.47;;;20.70;99.90;;;;;;5007402;28;20052;-76
2023/08/11 07:01:26;;;;;;;7.95;2.35;;;20.70;99.90;;;;;;5021799;28;20112;-77
2023/08/11 07:03:51;;;;;;;8.05;2.92;;;21.00;99.90;;;;;;5021447;28;20033;-76
2023/08/11 07:06:17;;;;;;;2.08;1.88;;;20.90;99.90;;;;;;4993274;28;20502;-77
2023/08/11 07:08:42;;;;;;;4.65;2.25;;;21.10;99.90;;;;;;4992024;28;20032;-76
2023/08/11 07:11:08;;;;;;;2.45;2.08;;;21.30;99.90;;;;;;5019441;28;20056;-78
2023/08/11 07:13:34;;;;;;;3.03;1.90;;;21.40;99.90;;;;;;5008453;28;20068;-77
2023/08/11 07:16:00;;;;;;;4.15;2.17;;;21.50;99.90;;;;;;5020909;28;20494;-77
2023/08/11 07:18:27;;;;;;;3.13;2.25;;;21.60;99.90;;;;;;5007638;28;20030;-78
2023/08/11 07:20:52;;;;;;;2.75;2.13;;;21.90;99.90;;;;;;5006901;28;20044;-77
2023/08/11 07:23:18;;;;;;;6.13;3.15;;;22.10;99.90;;;;;;5022806;28;20137;-78
2023/08/11 07:25:45;;;;;;;6.45;2.80;;;22.40;99.90;;;;;;5021711;28;20030;-78
2023/08/11 07:28:11;;;;;;;2.55;2.15;;;22.60;99.90;;;;;;5003886;28;20128;-78
2023/08/11 07:30:37;;;;;;;2.53;1.85;;;22.70;99.90;;;;;;5003731;28;20113;-78
2023/08/11 07:33:03;;;;;;;5.18;2.30;;;22.80;99.90;;;;;;5020887;28;20107;-77
2023/08/11 07:35:28;;;;;;;3.58;1.90;;;23.10;99.90;;;;;;5003728;28;20128;-78
2023/08/11 07:37:54;;;;;;;10.00;2.67;;;23.20;99.90;;;;;;5020873;28;20034;-77
2023/08/11 07:40:20;;;;;;;6.28;2.75;;;23.30;99.90;;;;;;5020244;28;20120;-78
2023/08/11 07:42:45;;;;;;;3.80;2.17;;;23.40;99.90;;;;;;5011088;28;20435;-77
2023/08/11 07:45:11;;;;;;;6.35;2.58;;;23.60;99.90;;;;;;5013727;28;20045;-78
2023/08/11 07:47:37;;;;;;;3.00;2.47;;;23.70;99.90;;;;;;4992727;28;20025;-78
2023/08/11 07:50:02;;;;;;;2.53;1.92;;;24.10;99.90;;;;;;5003953;28;20037;-77
2023/08/11 07:52:28;;;;;;;3.63;2.47;;;24.20;99.90;;;;;;5020536;28;20064;-78
2023/08/11 07:54:53;;;;;;;3.47;2.03;;;24.30;99.90;;;;;;5006016;28;20057;-78
2023/08/11 07:57:21;;;;;;;4.47;2.08;;;24.70;99.90;;;;;;5017039;28;20029;-78
2023/08/11 07:59:47;;;;;;;4.55;2.42;;;24.70;99.90;;;;;;5019827;28;20029;-78
2023/08/11 08:02:15;;;;;;;5.60;2.63;;;24.90;99.90;;;;;;5024650;28;20026;-77
2023/08/11 08:04:40;;;;;;;2.85;2.00;;;24.90;99.90;;;;;;5003611;28;20537;-76
2023/08/11 08:07:06;;;;;;;2.40;1.75;;;25.30;99.80;;;;;;5026641;28;20041;-78
2023/08/11 08:09:33;;;;;;;3.35;2.00;;;25.30;99.90;;;;;;5023098;28;20037;-78
2023/08/11 08:12:00;;;;;;;3.92;2.03;;;25.20;99.70;;;;;;5024513;28;20113;-78
2023/08/11 08:14:25;;;;;;;3.80;1.83;;;25.40;99.60;;;;;;5013657;28;20026;-78
2023/08/11 08:16:51;;;;;;;2.95;1.83;;;25.70;96.90;;;;;;5023800;28;20036;-78
2023/08/11 08:19:17;;;;;;;3.33;1.83;;;25.70;97.70;;;;;;5027520;28;20034;-78
2023/08/11 08:21:42;;;;;;;3.35;2.10;;;25.80;97.50;;;;;;5003293;28;20660;-78
2023/08/11 08:24:08;;;;;;;2.75;1.83;;;26.00;97.30;;;;;;5037293;28;20033;-77
2023/08/11 08:26:35;;;;;;;3.90;2.22;;;26.10;95.70;;;;;;5025555;28;20093;-78
2023/08/11 08:29:00;;;;;;;8.05;1.90;;;26.40;95.10;;;;;;5009983;28;20041;-78
2023/08/11 08:31:27;;;;;;;5.68;2.00;;;26.60;95.90;;;;;;4988755;28;20880;-79
2023/08/11 08:33:53;;;;;;;6.43;2.33;;;26.50;95.70;;;;;;5017171;28;20133;-78
2023/08/11 08:36:19;;;;;;;2.30;1.75;;;26.60;97.50;;;;;;5016886;28;20432;-78
2023/08/11 08:38:44;;;;;;;6.10;1.92;;;26.60;97.60;;;;;;5003816;28;20030;-77
2023/08/11 08:41:10;;;;;;;4.47;2.03;;;26.80;99.80;;;;;;5008365;28;20371;-77
2023/08/11 08:43:36;;;;;;;2.92;1.90;;;26.90;96.30;;;;;;5009209;28;20033;-78
2023/08/11 08:46:03;;;;;;;4.00;2.00;;;27.00;99.00;;;;;;4988218;28;20535;-78
2023/08/11 08:48:59;;;;;;;3.70;1.50;;;27.10;96.80;;;;;;5022653;28;20033;-78
2023/08/11 08:51:25;;;;;;;3.60;2.10;;;27.60;96.20;;;;;;5007038;28;20106;-78
2023/08/11 08:53:51;;;;;;;2.78;1.73;;;27.90;93.40;;;;;;5018636;28;20405;-78
2023/08/11 08:56:16;;;;;;;2.15;1.80;;;27.80;94.70;;;;;;5019263;28;20107;-78
2023/08/11 08:58:43;;;;;;;3.03;2.00;;;27.90;94.60;;;;;;4992323;28;20091;-78
2023/08/11 09:01:09;;;;;;;2.38;1.95;;;28.30;94.50;;;;;;5003817;28;20484;-78
2023/08/11 09:03:37;;;;;;;5.88;1.83;;;28.30;94.40;;;;;;5001219;28;20033;-78
2023/08/11 09:06:03;;;;;;;4.93;2.13;;;28.20;94.90;;;;;;5000309;28;20048;-78
2023/08/11 09:08:31;;;;;;;3.70;1.80;;;28.30;94.60;;;;;;5018228;28;20030;-78
2023/08/11 09:10:57;;;;;;;2.78;2.05;;;28.60;92.90;;;;;;4987285;28;20096;-78
2023/08/11 09:13:22;;;;;;;5.25;2.65;;;28.60;94.20;;;;;;5018843;28;20652;-78
2023/08/11 09:15:48;;;;;;;2.53;1.85;;;28.80;94.00;;;;;;5021393;28;20048;-78
2023/08/11 09:18:16;;;;;;;4.68;2.10;;;29.00;93.20;;;;;;5007769;28;20068;-78
2023/08/11 09:20:41;;;;;;;2.78;2.33;;;29.00;93.30;;;;;;5011279;28;20045;-78
2023/08/11 09:23:07;;;;;;;5.10;2.58;;;29.00;93.80;;;;;;5022581;28;20041;-78
2023/08/11 09:25:33;;;;;;;5.82;2.15;;;29.20;93.00;;;;;;5021630;28;20056;-78
2023/08/11 09:27:58;;;;;;;2.03;1.83;;;29.20;93.50;;;;;;4986371;28;20048;-79
2023/08/11 09:30:29;;;;;;;3.25;1.98;;;29.20;93.60;;;;;;5010581;28;20037;-79
2023/08/11 09:32:55;;;;;;;3.53;2.00;;;29.60;93.20;;;;;;5007495;28;20030;-79
2023/08/11 09:35:24;;;;;;;2.25;1.95;;;30.30;88.10;;;;;;5004669;28;20030;-79
2023/08/11 09:37:54;;;;;;;1.98;1.70;;;30.10;90.00;;;;;;4988725;28;20522;-79
2023/08/11 09:40:21;;;;;;;2.28;1.90;;;30.50;86.70;;;;;;4994929;28;20064;-78
2023/08/11 09:42:46;;;;;;;3.70;1.88;;;30.70;86.90;;;;;;5023155;28;20624;-78
2023/08/11 09:45:12;;;;;;;3.75;2.72;;;30.90;80.20;;;;;;5021714;28;20038;-79
2023/08/11 09:47:37;;;;;;;5.80;2.28;;;31.00;81.70;;;;;;5022542;28;20040;-79
2023/08/11 09:50:03;;;;;;;6.65;2.17;;;31.20;77.10;;;;;;5018442;28;20067;-78
2023/08/11 09:52:31;;;;;;;4.93;2.35;;;31.50;75.70;;;;;;5014372;28;20025;-79
2023/08/11 09:54:56;;;;;;;4.32;2.20;;;31.40;81.80;;;;;;5003758;28;20539;-78
2023/08/11 09:57:22;;;;;;;3.03;1.92;;;31.30;80.90;;;;;;5016538;28;20040;-78
2023/08/11 09:59:48;;;;;;;4.07;2.30;;;31.20;79.90;;;;;;5000080;28;20537;-78
2023/08/11 10:02:16;;;;;;;2.95;1.60;;;31.20;74.10;;;;;;5016559;28;20508;-78
2023/08/11 10:04:46;;;;;;;2.95;2.35;;;31.40;76.40;;;;;;4988644;28;20545;-78
2023/08/11 10:07:13;;;;;;;2.65;2.28;;;31.30;79.30;;;;;;5002236;28;20025;-78
2023/08/11 10:09:39;;;;;;;2.47;2.10;;;31.60;72.80;;;;;;4990993;28;20053;-78
2023/08/11 10:12:05;;;;;;;3.55;1.83;;;31.80;74.10;;;;;;5004356;28;20059;-78
2023/08/11 10:14:31;;;;;;;4.43;2.10;;;31.70;72.10;;;;;;4983185;28;20489;-77
2023/08/11 10:17:00;;;;;;;3.78;1.98;;;31.80;74.90;;;;;;5006546;28;20033;-77
2023/08/11 10:19:25;;;;;;;2.47;1.67;;;31.90;71.50;;;;;;5001113;28;20034;-78
2023/08/11 10:21:51;;;;;;;2.10;1.67;;;32.30;71.00;;;;;;5022051;28;20571;-76
2023/08/11 10:24:16;;;;;;;3.33;2.10;;;32.10;72.80;;;;;;5015698;28;20084;-78
2023/08/11 10:26:42;;;;;;;2.88;1.95;;;32.20;75.70;;;;;;4990580;28;20030;-77
2023/08/11 10:29:08;;;;;;;4.35;2.00;;;32.50;71.10;;;;;;4997957;28;20065;-78
2023/08/11 10:31:33;;;;;;;3.47;2.13;;;32.70;70.00;;;;;;5021295;28;20046;-78
2023/08/11 10:34:04;;;;;;;2.47;1.80;;;32.80;66.50;;;;;;5007705;28;20033;-78
2023/08/11 10:36:32;;;;;;;2.38;2.17;;;32.70;71.20;;;;;;5004903;28;20029;-78
2023/08/11 10:39:05;;;;;;;3.53;1.88;;;32.50;72.50;;;;;;5004890;28;20104;-78
2023/08/11 10:41:31;;;;;;;3.05;1.85;;;32.50;68.90;;;;;;5001549;28;20048;-79
2023/08/11 10:43:57;;;;;;;2.13;1.92;;;32.60;72.60;;;;;;5020198;28;20037;-77
2023/08/11 10:46:23;;;;;;;4.15;2.03;;;32.90;70.00;;;;;;5000607;28;20072;-79
2023/08/11 10:48:53;;;;;;;5.32;1.83;;;33.40;68.50;;;;;;5020298;28;20041;-78
2023/08/11 10:51:32;;;;;;;4.25;2.00;;;33.40;69.70;;;;;;5002844;28;20049;-78
2023/08/11 10:54:10;;;;;;;4.63;2.15;;;33.00;72.50;;;;;;4999057;28;20069;-77
2023/08/11 10:56:40;;;;;;;4.13;1.77;;;33.00;72.00;;;;;;5003861;28;20061;-79
2023/08/11 10:59:15;;;;;;;2.38;2.13;;;33.30;71.30;;;;;;5005568;28;20152;-78
2023/08/11 11:01:41;;;;;;;;;;;33.10;71.50;;;;;;5017818;28;20038;-78
2023/08/11 11:04:07;;;;;;;2.40;2.03;;;33.00;72.70;;;;;;5017393;28;20448;-78
2023/08/11 11:06:34;;;;;;;3.72;2.88;;;33.40;72.20;;;;;;4311756;28;10000402;-79
2023/08/11 11:09:02;;;;;;;3.33;2.20;;;33.60;71.60;;;;;;5002328;28;20152;-78
2023/08/11 11:11:28;;;;;;;4.43;1.88;;;33.60;69.20;;;;;;5013417;28;20045;-78
2023/08/11 11:13:55;;;;;;;3.40;1.80;;;33.70;67.40;;;;;;5021873;28;20092;-78
2023/08/11 11:16:21;;;;;;;7.50;2.38;;;34.10;66.60;;;;;;5002822;28;20034;-79
2023/08/11 11:18:47;;;;;;;5.40;1.90;;;33.80;64.90;;;;;;5016730;28;20639;-78
2023/08/11 11:21:13;;;;;;;2.22;1.95;;;33.60;68.90;;;;;;5015068;28;20043;-76
2023/08/11 11:23:44;;;;;;;2.10;1.80;;;33.80;68.10;;;;;;4987253;28;20493;-78
2023/08/11 11:26:10;;;;;;;3.20;2.15;;;33.70;68.00;;;;;;5018884;28;20116;-78
2023/08/11 11:28:36;;;;;;;3.53;2.10;;;33.60;67.70;;;;;;5014268;28;20463;-79
2023/08/11 11:31:01;;;;;;;3.20;2.15;;;33.50;67.80;;;;;;4999849;28;20022;-79
2023/08/11 11:33:28;;;;;;;3.55;2.20;;;33.70;69.30;;;;;;5005999;28;20033;-77
2023/08/11 11:35:53;;;;;;;2.33;1.88;;;34.00;66.90;;;;;;5005040;28;20106;-79
2023/08/11 11:38:19;;;;;;;3.75;1.77;;;34.30;65.50;;;;;;5021307;28;20113;-78
2023/08/11 11:40:44;;;;;;;3.05;1.70;;;34.30;65.90;;;;;;5006796;28;20034;-78
2023/08/11 11:43:10;;;;;;;4.63;2.10;;;34.10;64.10;;;;;;5002602;28;20049;-78
2023/08/11 11:45:36;;;;;;;2.00;1.70;;;34.00;66.00;;;;;;5003258;28;20509;-78
2023/08/11 11:48:01;;;;;;;2.17;1.73;;;34.20;66.10;;;;;;5018040;28;20034;-78
2023/08/11 11:50:29;;;;;;;4.93;2.53;;;34.20;65.20;;;;;;5019252;28;20622;-78
2023/08/11 11:52:54;;;;;;;2.78;1.92;;;34.20;64.60;;;;;;4990194;28;20038;-78
2023/08/11 11:55:20;;;;;;;4.20;1.83;;;34.50;64.70;;;;;;4995450;28;20041;-79
2023/08/11 11:57:45;;;;;;;4.28;2.38;;;34.70;64.00;;;;;;5022436;28;20053;-78
2023/08/11 12:00:18;;;;;;;2.20;2.00;;;34.50;65.10;;;;;;4992392;28;20243;-78
2023/08/11 12:02:45;;;;;;;2.47;1.85;;;34.70;65.60;;;;;;5008428;28;20032;-78
2023/08/11 12:05:12;;;;;;;2.17;1.98;;;35.20;62.70;;;;;;4997997;28;20615;-78
2023/08/11 12:07:38;;;;;;;6.25;1.92;;;35.40;62.70;;;;;;5012254;28;20825;-79
2023/08/11 12:10:06;;;;;;;3.85;2.25;;;35.30;64.20;;;;;;5019352;28;20061;-79
2023/08/11 12:12:32;;;;;;;5.93;2.45;;;35.50;61.80;;;;;;5004622;28;20148;-78
2023/08/11 12:15:07;;;;;;;4.63;2.35;;;35.90;59.60;;;;;;5004685;28;20056;-78
2023/08/11 12:17:33;;;;;;;2.23;2.03;;;35.40;62.40;;;;;;5007923;28;20041;-78
2023/08/11 12:20:08;;;;;;;2.45;2.15;;;35.40;63.90;;;;;;5007032;28;20072;-78
2023/08/11 12:22:33;;;;;;;4.47;2.55;;;35.60;62.80;;;;;;4990640;28;20495;-78
2023/08/11 12:24:59;;;;;;;3.33;2.20;;;35.60;62.30;;;;;;5022449;28;20029;-78
2023/08/11 12:27:25;;;;;;;4.82;2.67;;;36.20;60.40;;;;;;5000325;28;20108;-79
2023/08/11 12:29:50;;;;;;;4.75;2.20;;;36.40;60.30;;;;;;5024184;28;20033;-78
2023/08/11 12:32:17;;;;;;;6.80;2.00;;;36.30;60.70;;;;;;5021072;28;20048;-78
2023/08/11 12:34:42;;;;;;;3.47;2.58;;;36.30;60.10;;;;;;5020115;28;20061;-78
2023/08/11 12:37:08;;;;;;;4.75;3.03;;;35.70;62.80;;;;;;5020379;28;20438;-77
2023/08/11 12:39:34;;;;;;;2.92;2.20;;;35.40;61.20;;;;;;5020398;28;20037;-78
2023/08/11 12:41:59;;;;;;;3.33;2.40;;;35.30;63.90;;;;;;5019397;28;20033;-78